createdAt,value
2019-05-16T00:00:44.155Z,14.23
2019-05-16T00:05:54.114Z,14.45
2019-05-16T00:10:57.940Z,14.04
2019-05-16T00:16:03.606Z,13.39
2019-05-16T00:21:08.710Z,13.90
2019-05-16T00:26:13.715Z,14.03
2019-05-16T00:31:18.511Z,14.16
2019-05-16T00:36:23.418Z,14.56
2019-05-16T00:41:28.379Z,14.68
2019-05-16T00:46:33.194Z,14.08
2019-05-16T00:51:37.955Z,13.65
2019-05-16T00:56:42.998Z,14.32
2019-05-16T01:01:49.958Z,14.64
2019-05-16T01:06:53.917Z,14.45
2019-05-16T01:11:58.438Z,14.81
2019-05-16T01:17:03.094Z,14.36
2019-05-16T01:22:09.447Z,14.43
2019-05-16T01:27:14.219Z,14.29
2019-05-16T01:32:19.160Z,13.81
2019-05-16T01:37:24.831Z,13.92
2019-05-16T01:42:29.577Z,14.67
2019-05-16T01:47:34.210Z,14.43
2019-05-16T01:52:38.965Z,14.60
2019-05-16T01:57:43.702Z,13.86
2019-05-16T02:02:48.751Z,14.03
2019-05-16T02:07:54.731Z,14.77
2019-05-16T02:12:59.469Z,14.91
2019-05-16T02:18:04.318Z,14.79
2019-05-16T02:23:09.058Z,14.53
2019-05-16T02:28:13.804Z,14.55
2019-05-16T02:33:21.338Z,14.18
2019-05-16T02:38:24.755Z,14.60
2019-05-16T02:43:31.825Z,14.09
2019-05-16T02:48:40.823Z,14.78
2019-05-16T02:53:44.173Z,14.63
2019-05-16T02:58:51.695Z,14.49
2019-05-16T03:03:55.205Z,14.55
2019-05-16T03:09:05.018Z,13.99
2019-05-16T03:14:06.528Z,14.66
2019-05-16T03:19:11.426Z,15.11
2019-05-16T03:24:16.174Z,15.21
2019-05-16T03:29:21.881Z,15.44
2019-05-16T03:34:26.812Z,15.12
2019-05-16T03:39:31.788Z,15.45
2019-05-16T03:44:36.525Z,15.15
2019-05-16T03:49:42.278Z,15.43
2019-05-16T03:54:47.239Z,15.23
2019-05-16T03:59:51.931Z,15.23
2019-05-16T04:04:56.802Z,15.35
2019-05-16T04:10:02.378Z,15.55
2019-05-16T04:15:11.392Z,15.66
2019-05-16T04:20:15.983Z,15.61
2019-05-16T04:25:21.680Z,15.43
2019-05-16T04:30:26.586Z,15.23
2019-05-16T04:35:31.668Z,15.44
2019-05-16T04:40:38.424Z,15.56
2019-05-16T04:45:42.854Z,15.18
2019-05-16T04:50:51.188Z,15.20
2019-05-16T04:55:53.994Z,14.74
2019-05-16T05:01:01.250Z,15.15
2019-05-16T05:06:05.421Z,15.17
2019-05-16T05:11:10.795Z,15.34
2019-05-16T05:16:15.521Z,15.30
2019-05-16T05:21:21.004Z,15.26
2019-05-16T05:26:27.057Z,15.38
2019-05-16T05:31:35.358Z,15.01
2019-05-16T05:36:40.638Z,14.61
2019-05-16T05:41:44.357Z,15.34
2019-05-16T05:46:51.176Z,15.32
2019-05-16T05:51:55.382Z,15.47
2019-05-16T05:57:00.697Z,14.94
2019-05-16T06:02:05.687Z,15.09
2019-05-16T06:07:11.275Z,15.43
2019-05-16T06:12:15.992Z,15.76
2019-05-16T06:17:20.596Z,15.72
2019-05-16T06:22:25.125Z,15.73
2019-05-16T06:27:30.245Z,15.71
2019-05-16T06:32:35.173Z,15.71
2019-05-16T06:37:40.595Z,15.58
2019-05-16T06:42:45.784Z,16.03
2019-05-16T06:47:51.555Z,15.98
2019-05-16T06:52:56.307Z,16.27
2019-05-16T06:58:01.143Z,16.50
2019-05-16T07:03:06.011Z,15.80
2019-05-16T07:08:10.664Z,16.48
2019-05-16T07:13:15.375Z,16.32
2019-05-16T07:18:21.256Z,16.93
2019-05-16T07:23:26.091Z,16.37
2019-05-16T07:28:30.830Z,17.12
2019-05-16T07:33:35.575Z,16.56
2019-05-16T07:38:40.528Z,17.41
2019-05-16T07:43:45.267Z,17.55
2019-05-16T07:48:51.770Z,16.83
2019-05-16T07:53:56.290Z,16.98
2019-05-16T07:59:01.036Z,17.10
2019-05-16T08:04:06.805Z,17.23
2019-05-16T08:09:12.366Z,17.13
2019-05-16T08:14:17.930Z,17.17
2019-05-16T08:19:25.215Z,17.61
2019-05-16T08:24:30.936Z,17.19
2019-05-16T08:29:36.275Z,17.65
2019-05-16T08:34:41.043Z,17.56
2019-05-16T08:39:45.947Z,17.57
2019-05-16T08:50:00.524Z,17.65
2019-05-16T08:50:10.028Z,17.57
2019-05-16T08:55:06.728Z,17.49
2019-05-16T09:00:14.779Z,17.91
2019-05-16T09:05:22.673Z,18.11
2019-05-16T09:15:32.153Z,17.68
2019-05-16T09:20:37.424Z,18.28
2019-05-16T09:25:43.593Z,18.37
2019-05-16T09:30:48.228Z,18.04
2019-05-16T09:35:52.877Z,18.05
2019-05-16T09:40:57.624Z,18.32
2019-05-16T09:46:03.958Z,18.65
2019-05-16T09:51:08.741Z,18.65
2019-05-16T09:56:13.387Z,18.70
2019-05-16T10:01:17.977Z,16.94
2019-05-16T10:06:22.787Z,17.80
2019-05-16T10:11:31.048Z,18.77
2019-05-16T10:16:36.770Z,19.25
2019-05-16T10:21:42.217Z,19.16
2019-05-16T10:26:53.459Z,18.42
2019-05-16T10:31:53.639Z,19.07
2019-05-16T10:36:58.397Z,19.01
2019-05-16T10:42:03.246Z,19.35
2019-05-16T10:47:07.991Z,19.23
2019-05-16T10:52:12.728Z,19.73
2019-05-16T10:57:17.426Z,19.76
2019-05-16T11:02:22.248Z,19.60
2019-05-16T11:07:29.402Z,19.35
2019-05-16T11:12:45.808Z,19.94
2019-05-16T11:17:39.430Z,20.06
2019-05-16T11:22:44.161Z,19.80
2019-05-16T11:27:50.444Z,18.74
2019-05-16T11:32:56.704Z,18.51
2019-05-16T11:38:01.778Z,18.36
2019-05-16T11:43:15.971Z,18.04
2019-05-16T11:48:13.389Z,16.83
2019-05-16T11:53:18.253Z,17.59
2019-05-16T11:58:23.103Z,17.95
2019-05-16T12:03:28.435Z,16.56
2019-05-16T12:08:33.740Z,15.99
2019-05-16T12:13:39.602Z,16.01
2019-05-16T12:18:46.284Z,17.03
2019-05-16T12:23:50.844Z,17.99
2019-05-16T12:28:57.317Z,18.53
2019-05-16T12:34:01.837Z,18.55
2019-05-16T12:39:08.082Z,18.21
2019-05-16T12:44:12.814Z,18.21
2019-05-16T12:49:17.678Z,18.46
2019-05-16T12:54:23.475Z,18.59
2019-05-16T12:59:28.326Z,18.68
2019-05-16T13:04:33.054Z,18.60
2019-05-16T13:09:37.702Z,18.31
2019-05-16T13:14:42.342Z,18.68
2019-05-16T13:19:48.310Z,18.69
2019-05-16T13:24:53.154Z,18.42
2019-05-16T13:30:00.379Z,17.75
2019-05-16T13:35:07.659Z,18.05
2019-05-16T13:40:12.829Z,18.07
2019-05-16T13:45:17.941Z,17.87
2019-05-16T13:50:22.829Z,16.78
2019-05-16T13:55:27.470Z,16.13
2019-05-16T14:00:32.306Z,16.88
2019-05-16T14:05:37.961Z,16.97
2019-05-16T14:10:43.315Z,17.16
2019-05-16T14:15:49.610Z,17.93
2019-05-16T14:20:57.274Z,17.40
2019-05-16T14:26:09.240Z,17.80
2019-05-16T14:31:17.390Z,18.15
2019-05-16T14:36:27.969Z,17.37
2019-05-16T14:41:36.938Z,18.08
2019-05-16T14:46:40.802Z,18.39
2019-05-16T14:51:47.595Z,18.39
2019-05-16T14:56:52.353Z,18.17
2019-05-16T15:01:58.132Z,18.02
2019-05-16T15:07:02.955Z,18.39
2019-05-16T15:12:07.802Z,18.37
2019-05-16T15:17:12.645Z,18.21
2019-05-16T15:22:18.004Z,18.38
2019-05-16T15:27:26.262Z,17.91
2019-05-16T15:32:33.830Z,18.22
2019-05-16T15:37:38.619Z,18.33
2019-05-16T15:42:43.342Z,18.24
2019-05-16T15:47:48.246Z,18.14
2019-05-16T15:52:53.047Z,18.09
2019-05-16T15:57:58.136Z,17.86
2019-05-16T16:03:03.016Z,17.90
2019-05-16T16:08:07.787Z,18.26
2019-05-16T16:13:12.603Z,18.37
2019-05-16T16:18:21.030Z,18.30
2019-05-16T16:23:27.370Z,18.44
2019-05-16T16:28:32.574Z,18.59
2019-05-16T16:33:37.620Z,18.64
2019-05-16T16:38:42.770Z,18.54
2019-05-16T16:43:47.843Z,18.52
2019-05-16T16:48:52.900Z,18.13
2019-05-16T16:53:58.189Z,17.87
2019-05-16T16:59:03.503Z,17.75
2019-05-16T17:04:09.364Z,18.14
2019-05-16T17:09:14.512Z,17.90
2019-05-16T17:14:19.514Z,18.06
2019-05-16T17:19:24.618Z,17.94
2019-05-16T17:24:29.885Z,17.84
2019-05-16T17:29:36.765Z,17.81
2019-05-16T17:34:42.011Z,16.98
2019-05-16T17:39:47.482Z,17.50
2019-05-16T17:44:53.294Z,17.80
2019-05-16T17:50:01.274Z,17.72
2019-05-16T17:55:07.667Z,17.69
2019-05-16T18:00:24.410Z,17.80
2019-05-16T18:05:22.899Z,17.65
2019-05-16T18:10:30.556Z,17.82
2019-05-16T18:15:40.712Z,17.45
2019-05-16T18:20:55.890Z,17.73
2019-05-16T18:25:54.350Z,17.58
2019-05-16T18:31:00.118Z,17.57
2019-05-16T18:36:07.674Z,17.26
2019-05-16T18:41:12.596Z,16.94
2019-05-16T18:46:19.375Z,17.09
2019-05-16T18:51:26.495Z,17.07
2019-05-16T18:56:31.609Z,16.61
2019-05-16T19:01:37.523Z,15.99
2019-05-16T19:06:42.853Z,16.65
2019-05-16T19:11:47.779Z,16.96
2019-05-16T19:16:53.373Z,16.80
2019-05-16T19:22:00.545Z,16.95
2019-05-16T19:27:06.692Z,16.66
2019-05-16T19:32:12.262Z,16.62
2019-05-16T19:37:17.482Z,16.65
2019-05-16T19:42:23.574Z,16.69
2019-05-16T19:47:36.995Z,16.85
2019-05-16T19:52:36.657Z,16.11
2019-05-16T19:57:41.453Z,16.17
2019-05-16T20:02:47.324Z,16.30
2019-05-16T20:07:52.791Z,16.74
2019-05-16T20:12:59.041Z,16.61
2019-05-16T20:18:03.783Z,16.50
2019-05-16T20:23:08.628Z,16.75
2019-05-16T20:28:13.577Z,16.42
2019-05-16T20:33:18.329Z,16.70
2019-05-16T20:38:24.080Z,16.85
2019-05-16T20:43:28.803Z,15.98
2019-05-16T20:48:36.752Z,16.59
2019-05-16T20:53:41.387Z,16.87
2019-05-16T20:58:48.359Z,15.93
2019-05-16T21:03:52.419Z,16.49
2019-05-16T21:08:57.597Z,16.83
2019-05-16T21:14:03.346Z,16.87
2019-05-16T21:19:08.188Z,16.61
2019-05-16T21:24:12.838Z,16.76
2019-05-16T21:29:19.523Z,16.81
2019-05-16T21:34:27.115Z,16.85
2019-05-16T21:39:31.140Z,16.71
2019-05-16T21:44:37.389Z,16.85
2019-05-16T21:49:42.376Z,16.99
2019-05-16T21:54:47.269Z,16.73
2019-05-16T21:59:52.374Z,17.02
2019-05-16T22:04:58.657Z,16.83
2019-05-16T22:10:06.307Z,17.02
2019-05-16T22:15:12.134Z,16.98
2019-05-16T22:20:18.423Z,16.82
2019-05-16T22:25:23.261Z,16.61
2019-05-16T22:30:28.002Z,16.71
2019-05-16T22:35:32.654Z,16.83
2019-05-16T22:40:37.563Z,17.05
2019-05-16T22:45:42.244Z,16.91
2019-05-16T22:50:46.878Z,17.00
2019-05-16T22:55:56.558Z,16.95
2019-05-16T23:01:06.732Z,16.97
2019-05-16T23:06:11.255Z,16.38
2019-05-16T23:11:16.412Z,16.52
2019-05-16T23:16:22.240Z,16.71
2019-05-16T23:21:27.622Z,16.70
2019-05-16T23:26:32.468Z,16.87
2019-05-16T23:31:37.340Z,16.74
2019-05-16T23:36:41.958Z,16.68
2019-05-16T23:41:47.392Z,16.94
2019-05-16T23:46:52.470Z,16.85
2019-05-16T23:51:57.320Z,16.76
2019-05-16T23:57:02.057Z,16.78
